createdAt,value
2018-11-13T00:00:28.072Z,90.30
2018-11-13T00:02:59.729Z,90.10
2018-11-13T00:05:30.914Z,90.20
2018-11-13T00:08:02.059Z,90.40
2018-11-13T00:10:33.270Z,90.60
2018-11-13T00:13:04.809Z,90.70
2018-11-13T00:15:36.098Z,90.70
2018-11-13T00:18:07.869Z,91.00
2018-11-13T00:20:39.042Z,91.00
2018-11-13T00:23:10.417Z,91.10
2018-11-13T00:25:41.577Z,91.40
2018-11-13T00:28:12.389Z,91.40
2018-11-13T00:30:43.355Z,91.50
2018-11-13T00:33:14.110Z,91.60
2018-11-13T00:35:45.046Z,91.30
2018-11-13T00:38:15.912Z,90.90
2018-11-13T00:40:46.613Z,91.10
2018-11-13T00:43:17.819Z,91.00
2018-11-13T00:45:48.815Z,90.80
2018-11-13T00:48:19.734Z,91.00
2018-11-13T00:50:50.540Z,91.10
2018-11-13T00:53:21.289Z,90.90
2018-11-13T00:55:52.131Z,90.70
2018-11-13T00:58:22.881Z,90.40
2018-11-13T01:00:54.476Z,90.40
2018-11-13T01:03:25.361Z,90.30
2018-11-13T01:05:56.602Z,90.40
2018-11-13T01:08:27.696Z,90.60
2018-11-13T01:10:58.877Z,90.70
2018-11-13T01:13:30.312Z,90.70
2018-11-13T01:16:01.421Z,91.20
2018-11-13T01:18:32.530Z,91.20
2018-11-13T01:21:03.832Z,91.10
2018-11-13T01:23:35.060Z,90.70
2018-11-13T01:26:06.442Z,90.40
2018-11-13T01:28:38.960Z,90.40
2018-11-13T01:31:10.025Z,90.70
2018-11-13T01:33:41.256Z,91.00
2018-11-13T01:36:12.615Z,91.20
2018-11-13T01:38:43.959Z,91.30
2018-11-13T01:41:15.147Z,91.30
2018-11-13T01:43:46.641Z,91.30
2018-11-13T01:46:18.046Z,91.00
2018-11-13T01:48:49.347Z,90.90
2018-11-13T01:51:20.433Z,90.90
2018-11-13T01:53:51.747Z,91.10
2018-11-13T01:56:22.864Z,91.40
2018-11-13T01:58:54.117Z,91.30
2018-11-13T02:01:25.687Z,91.10
2018-11-13T02:03:56.480Z,91.00
2018-11-13T02:06:27.726Z,90.90
2018-11-13T02:08:58.613Z,90.60
2018-11-13T02:11:29.455Z,90.70
2018-11-13T02:14:00.325Z,90.90
2018-11-13T02:16:31.086Z,91.00
2018-11-13T02:19:01.815Z,91.20
2018-11-13T02:21:32.739Z,91.30
2018-11-13T02:24:03.712Z,91.40
2018-11-13T02:26:34.560Z,91.50
2018-11-13T02:29:05.630Z,91.60
2018-11-13T02:31:36.420Z,91.80
2018-11-13T02:34:07.329Z,91.60
2018-11-13T02:36:38.381Z,91.40
2018-11-13T02:39:11.034Z,91.20
2018-11-13T02:41:42.084Z,91.30
2018-11-13T02:44:12.888Z,91.50
2018-11-13T02:46:43.768Z,91.70
2018-11-13T02:49:14.553Z,92.20
2018-11-13T02:51:45.263Z,92.00
2018-11-13T02:54:16.251Z,91.90
2018-11-13T02:56:47.167Z,91.90
2018-11-13T02:59:17.983Z,91.90
2018-11-13T03:01:49.233Z,91.70
2018-11-13T03:04:20.717Z,91.60
2018-11-13T03:06:52.001Z,91.30
2018-11-13T03:09:23.204Z,91.10
2018-11-13T03:11:54.579Z,91.20
2018-11-13T03:14:25.772Z,90.80
2018-11-13T03:16:56.884Z,90.90
2018-11-13T03:19:28.239Z,91.20
2018-11-13T03:21:59.330Z,91.60
2018-11-13T03:24:30.386Z,91.10
2018-11-13T03:27:01.814Z,91.30
2018-11-13T03:29:33.732Z,91.40
2018-11-13T03:32:04.689Z,91.70
2018-11-13T03:34:36.071Z,91.90
2018-11-13T03:37:07.674Z,91.90
2018-11-13T03:39:38.667Z,91.80
2018-11-13T03:42:10.094Z,91.70
2018-11-13T03:44:41.434Z,91.30
2018-11-13T03:47:12.630Z,91.40
2018-11-13T03:49:43.841Z,91.30
2018-11-13T03:52:15.088Z,91.20
2018-11-13T03:54:46.130Z,91.20
2018-11-13T03:57:17.185Z,91.10
2018-11-13T03:59:48.237Z,91.00
2018-11-13T04:02:19.450Z,91.00
2018-11-13T04:04:50.411Z,91.30
2018-11-13T04:07:21.249Z,91.70
2018-11-13T04:09:52.162Z,91.90
2018-11-13T04:12:23.178Z,92.00
2018-11-13T04:14:54.728Z,91.90
2018-11-13T04:17:25.742Z,91.80
2018-11-13T04:19:56.644Z,91.80
2018-11-13T04:22:27.545Z,91.60
2018-11-13T04:24:58.692Z,91.50
2018-11-13T04:27:29.833Z,91.70
2018-11-13T04:30:00.781Z,91.40
2018-11-13T04:32:31.908Z,91.70
2018-11-13T04:35:03.031Z,91.50
2018-11-13T04:37:34.324Z,91.60
2018-11-13T04:40:08.312Z,91.70
2018-11-13T04:42:39.912Z,91.40
2018-11-13T04:45:12.872Z,91.20
2018-11-13T04:47:45.106Z,91.10
2018-11-13T04:50:17.166Z,90.70
2018-11-13T04:52:48.090Z,90.60
2018-11-13T04:55:19.527Z,90.70
2018-11-13T04:57:51.029Z,90.70
2018-11-13T05:00:23.264Z,90.60
2018-11-13T05:02:54.173Z,90.70
2018-11-13T05:05:25.288Z,90.70
2018-11-13T05:07:56.578Z,90.90
2018-11-13T05:10:27.698Z,91.20
2018-11-13T05:12:58.571Z,91.70
2018-11-13T05:15:29.362Z,91.80
2018-11-13T05:18:00.261Z,91.50
2018-11-13T05:20:31.209Z,91.40
2018-11-13T05:23:02.297Z,91.60
2018-11-13T05:25:33.449Z,91.60
2018-11-13T05:28:04.346Z,91.50
2018-11-13T05:30:35.318Z,91.30
2018-11-13T05:33:06.306Z,91.00
2018-11-13T05:35:37.288Z,90.90
2018-11-13T05:38:08.346Z,90.90
2018-11-13T05:40:39.503Z,90.80
2018-11-13T05:43:10.401Z,90.70
2018-11-13T05:45:41.368Z,90.70
2018-11-13T05:48:12.199Z,90.70
2018-11-13T05:50:43.163Z,90.50
2018-11-13T05:53:14.407Z,90.00
2018-11-13T05:55:45.573Z,89.60
2018-11-13T05:58:16.525Z,88.80
2018-11-13T06:00:47.385Z,87.60
2018-11-13T06:03:18.250Z,86.60
2018-11-13T06:05:49.197Z,85.30
2018-11-13T06:08:20.358Z,84.80
2018-11-13T06:10:51.218Z,83.70
2018-11-13T06:13:22.303Z,83.20
2018-11-13T06:15:53.117Z,82.80
2018-11-13T06:18:24.101Z,81.70
2018-11-13T06:20:55.168Z,81.30
2018-11-13T06:23:26.279Z,80.60
2018-11-13T06:25:57.212Z,79.00
2018-11-13T06:28:28.178Z,79.20
2018-11-13T06:30:59.316Z,77.10
2018-11-13T06:33:30.309Z,76.90
2018-11-13T06:36:01.237Z,76.50
2018-11-13T06:38:32.223Z,77.50
2018-11-13T06:41:03.252Z,77.10
2018-11-13T06:43:34.165Z,76.80
2018-11-13T06:46:05.348Z,76.40
2018-11-13T06:48:36.203Z,76.00
2018-11-13T06:51:07.215Z,74.20
2018-11-13T06:53:53.370Z,73.70
2018-11-13T06:56:24.676Z,74.30
2018-11-13T06:58:55.869Z,73.50
2018-11-13T07:01:26.903Z,72.00
2018-11-13T07:03:57.960Z,72.70
2018-11-13T07:06:29.000Z,73.40
2018-11-13T07:09:00.135Z,72.80
2018-11-13T07:11:31.151Z,72.40
2018-11-13T07:14:02.285Z,73.10
2018-11-13T07:16:33.440Z,73.10
2018-11-13T07:19:04.384Z,73.30
2018-11-13T07:21:35.832Z,72.90
2018-11-13T07:24:07.032Z,71.90
2018-11-13T07:26:38.115Z,71.20
2018-11-13T07:29:09.142Z,71.30
2018-11-13T07:31:40.072Z,70.50
2018-11-13T07:34:11.027Z,69.10
2018-11-13T07:36:41.981Z,68.10
2018-11-13T07:39:13.166Z,67.80
2018-11-13T07:41:44.101Z,67.80
2018-11-13T07:44:15.345Z,67.00
2018-11-13T07:46:46.433Z,66.30
2018-11-13T07:49:17.630Z,67.00
2018-11-13T07:51:48.679Z,66.40
2018-11-13T07:54:19.897Z,65.40
2018-11-13T07:56:50.931Z,65.70
2018-11-13T07:59:22.118Z,65.80
2018-11-13T08:01:53.156Z,65.60
2018-11-13T08:04:24.284Z,64.30
2018-11-13T08:06:55.363Z,64.90
2018-11-13T08:09:26.507Z,64.10
2018-11-13T08:11:57.693Z,62.90
2018-11-13T08:14:28.737Z,62.50
2018-11-13T08:16:59.844Z,62.10
2018-11-13T08:19:31.386Z,61.50
2018-11-13T08:22:02.740Z,61.70
2018-11-13T08:24:34.011Z,62.20
2018-11-13T08:27:05.279Z,62.70
2018-11-13T08:29:36.569Z,62.70
2018-11-13T08:32:07.678Z,61.30
2018-11-13T08:34:39.162Z,61.60
2018-11-13T08:37:10.563Z,61.20
2018-11-13T08:39:41.688Z,61.30
2018-11-13T08:42:12.936Z,60.70
2018-11-13T08:44:44.073Z,61.00
2018-11-13T08:47:15.162Z,61.30
2018-11-13T08:49:46.508Z,61.00
2018-11-13T08:52:17.617Z,59.80
2018-11-13T08:54:48.850Z,58.80
2018-11-13T08:57:20.443Z,58.80
2018-11-13T08:59:51.751Z,59.10
2018-11-13T09:02:23.058Z,59.90
2018-11-13T09:04:54.758Z,60.30
2018-11-13T09:07:25.928Z,60.00
2018-11-13T09:09:57.309Z,60.00
2018-11-13T09:12:28.374Z,60.80
2018-11-13T09:14:59.592Z,61.70
2018-11-13T09:17:30.469Z,62.90
2018-11-13T09:20:01.702Z,63.60
2018-11-13T09:22:32.837Z,63.40
2018-11-13T09:25:04.074Z,63.90
2018-11-13T09:27:35.122Z,63.10
2018-11-13T09:30:08.309Z,64.20
2018-11-13T09:32:39.613Z,63.50
2018-11-13T09:35:12.114Z,63.70
2018-11-13T09:37:43.641Z,64.20
2018-11-13T09:40:18.935Z,64.70
2018-11-13T09:42:51.329Z,65.50
2018-11-13T09:45:22.379Z,66.70
2018-11-13T09:47:53.347Z,67.00
2018-11-13T09:50:24.678Z,67.20
2018-11-13T09:52:55.676Z,67.50
2018-11-13T09:55:26.572Z,66.80
2018-11-13T09:57:57.443Z,66.40
2018-11-13T10:00:28.525Z,67.00
2018-11-13T10:03:01.452Z,67.10
2018-11-13T10:05:31.954Z,67.70
2018-11-13T10:08:02.882Z,67.60
2018-11-13T10:10:33.967Z,68.40
2018-11-13T10:13:05.283Z,68.90
2018-11-13T10:15:36.264Z,69.50
2018-11-13T10:18:07.657Z,69.70
2018-11-13T10:20:38.403Z,69.70
2018-11-13T10:23:09.555Z,69.50
2018-11-13T10:25:40.622Z,68.80
2018-11-13T10:28:11.556Z,68.80
2018-11-13T10:30:42.763Z,69.00
2018-11-13T10:33:13.780Z,69.40
2018-11-13T10:35:44.764Z,69.70
2018-11-13T10:38:16.001Z,69.70
2018-11-13T10:40:47.273Z,69.80
2018-11-13T10:43:18.329Z,69.70
2018-11-13T10:45:49.283Z,69.40
2018-11-13T10:48:20.513Z,69.90
2018-11-13T10:50:51.575Z,71.00
2018-11-13T10:53:22.827Z,70.60
2018-11-13T10:55:54.106Z,70.30
2018-11-13T10:58:25.262Z,70.40
2018-11-13T11:01:04.378Z,70.50
2018-11-13T11:03:41.628Z,70.20
2018-11-13T11:06:12.658Z,70.60
2018-11-13T11:08:45.178Z,70.30
2018-11-13T11:11:16.694Z,69.80
2018-11-13T11:13:47.612Z,69.70
2018-11-13T11:16:19.737Z,70.30
2018-11-13T11:18:50.928Z,69.80
2018-11-13T11:21:22.008Z,69.90
2018-11-13T11:23:53.071Z,70.10
2018-11-13T11:26:23.998Z,70.60
2018-11-13T11:28:55.058Z,70.30
2018-11-13T11:31:26.494Z,70.10
2018-11-13T11:33:57.577Z,69.80
2018-11-13T11:36:28.937Z,69.50
2018-11-13T11:39:00.588Z,69.30
2018-11-13T11:41:32.212Z,68.90
2018-11-13T11:44:03.623Z,68.90
2018-11-13T11:46:35.181Z,68.90
2018-11-13T11:49:06.532Z,68.70
2018-11-13T11:51:38.775Z,69.00
2018-11-13T11:54:10.214Z,68.50
2018-11-13T11:56:41.671Z,68.80
2018-11-13T11:59:12.951Z,67.80
2018-11-13T12:01:44.203Z,68.00
2018-11-13T12:04:15.379Z,66.90
2018-11-13T12:06:46.512Z,67.10
2018-11-13T12:09:17.598Z,66.50
2018-11-13T12:11:48.749Z,66.10
2018-11-13T12:14:19.930Z,66.30
2018-11-13T12:16:51.396Z,66.00
2018-11-13T12:19:22.858Z,66.40
2018-11-13T12:21:54.167Z,65.70
2018-11-13T12:24:25.348Z,65.40
2018-11-13T12:26:56.563Z,65.60
2018-11-13T12:29:27.756Z,65.10
2018-11-13T12:31:59.015Z,65.50
2018-11-13T12:34:30.434Z,65.10
2018-11-13T12:37:01.715Z,65.30
2018-11-13T12:39:33.100Z,65.10
2018-11-13T12:42:04.406Z,65.10
2018-11-13T12:44:35.574Z,65.30
2018-11-13T12:47:06.952Z,65.70
2018-11-13T12:49:38.247Z,65.70
2018-11-13T12:52:15.828Z,65.60
2018-11-13T12:54:48.038Z,65.30
2018-11-13T12:57:19.200Z,65.90
2018-11-13T12:59:50.517Z,65.00
2018-11-13T13:02:21.827Z,65.00
2018-11-13T13:04:53.024Z,64.70
2018-11-13T13:07:24.260Z,64.60
2018-11-13T13:09:55.497Z,64.60
2018-11-13T13:12:26.481Z,64.70
2018-11-13T13:14:57.698Z,65.00
2018-11-13T13:17:28.779Z,65.50
2018-11-13T13:19:59.997Z,65.80
2018-11-13T13:22:31.088Z,65.70
2018-11-13T13:25:01.974Z,65.70
2018-11-13T13:27:32.944Z,65.80
2018-11-13T13:30:04.069Z,65.80
2018-11-13T13:32:35.206Z,66.00
2018-11-13T13:35:36.527Z,65.70
2018-11-13T13:38:09.180Z,66.50
2018-11-13T13:40:41.776Z,65.70
2018-11-13T13:43:13.725Z,65.70
2018-11-13T13:45:45.972Z,65.80
2018-11-13T13:48:17.494Z,65.90
2018-11-13T13:50:49.031Z,65.80
2018-11-13T13:53:20.812Z,65.70
2018-11-13T13:55:51.945Z,65.70
2018-11-13T13:58:23.981Z,66.20
2018-11-13T14:00:56.242Z,66.40
2018-11-13T14:03:27.382Z,66.60
2018-11-13T14:05:58.474Z,66.80
2018-11-13T14:08:30.404Z,66.80
2018-11-13T14:11:01.500Z,66.90
2018-11-13T14:13:32.812Z,66.90
2018-11-13T14:16:03.980Z,67.00
2018-11-13T14:18:35.115Z,67.00
2018-11-13T14:21:06.317Z,67.10
2018-11-13T14:23:37.603Z,67.20
2018-11-13T14:26:09.076Z,67.30
2018-11-13T14:28:40.274Z,67.40
2018-11-13T14:31:11.439Z,67.90
2018-11-13T14:33:42.435Z,68.10
2018-11-13T14:36:13.582Z,68.10
2018-11-13T14:38:44.699Z,68.40
2018-11-13T14:41:15.930Z,68.50
2018-11-13T14:43:47.287Z,68.80
2018-11-13T14:46:18.551Z,69.30
2018-11-13T14:48:49.668Z,69.60
2018-11-13T14:51:20.926Z,69.80
2018-11-13T14:53:52.297Z,70.00
2018-11-13T14:56:23.924Z,70.20
2018-11-13T14:58:55.235Z,70.60
2018-11-13T15:01:26.532Z,70.80
2018-11-13T15:03:57.900Z,71.20
2018-11-13T15:06:29.219Z,71.60
2018-11-13T15:09:00.688Z,71.90
2018-11-13T15:11:32.232Z,71.80
2018-11-13T15:14:03.379Z,72.60
2018-11-13T15:16:34.787Z,72.90
2018-11-13T15:19:06.837Z,72.50
2018-11-13T15:21:37.978Z,72.40
2018-11-13T15:24:09.312Z,72.90
2018-11-13T15:26:41.669Z,72.80
2018-11-13T15:29:12.836Z,72.90
2018-11-13T15:31:44.215Z,73.30
2018-11-13T15:34:15.467Z,73.80
2018-11-13T15:36:46.677Z,74.20
2018-11-13T15:39:18.082Z,74.70
2018-11-13T15:41:49.445Z,75.20
2018-11-13T15:44:20.808Z,75.80
2018-11-13T15:46:51.924Z,76.10
2018-11-13T15:49:23.236Z,76.40
2018-11-13T15:51:54.930Z,76.30
2018-11-13T15:54:26.442Z,76.20
2018-11-13T15:56:57.799Z,75.90
2018-11-13T15:59:29.024Z,76.00
2018-11-13T16:02:00.332Z,76.30
2018-11-13T16:04:32.098Z,77.10
2018-11-13T16:07:03.635Z,78.10
2018-11-13T16:09:35.223Z,78.80
2018-11-13T16:12:07.090Z,79.30
2018-11-13T16:14:38.231Z,79.80
2018-11-13T16:17:09.423Z,79.90
2018-11-13T16:19:40.742Z,80.00
2018-11-13T16:22:11.923Z,80.30
2018-11-13T16:24:43.085Z,80.70
2018-11-13T16:27:14.216Z,80.00
2018-11-13T16:29:45.632Z,81.20
2018-11-13T16:32:16.874Z,80.90
2018-11-13T16:34:48.167Z,80.70
2018-11-13T16:37:19.511Z,81.00
2018-11-13T16:39:51.191Z,81.80
2018-11-13T16:42:22.480Z,81.60
2018-11-13T16:44:53.788Z,82.00
2018-11-13T16:47:25.866Z,82.40
2018-11-13T16:49:57.468Z,81.80
2018-11-13T16:52:28.836Z,82.00
2018-11-13T16:55:01.618Z,82.10
2018-11-13T16:57:33.244Z,82.40
2018-11-13T17:00:05.573Z,83.10
2018-11-13T17:02:37.313Z,84.00
2018-11-13T17:05:12.971Z,84.10
2018-11-13T17:07:44.422Z,83.50
2018-11-13T17:10:17.717Z,84.40
2018-11-13T17:12:49.715Z,84.70
2018-11-13T17:15:22.201Z,85.00
2018-11-13T17:17:54.474Z,84.90
2018-11-13T17:20:25.907Z,84.50
2018-11-13T17:22:57.070Z,84.80
2018-11-13T17:25:29.769Z,84.50
2018-11-13T17:28:01.809Z,84.90
2018-11-13T17:30:34.671Z,85.20
2018-11-13T17:33:08.347Z,85.00
2018-11-13T17:35:39.885Z,84.90
2018-11-13T17:38:11.659Z,85.40
2018-11-13T17:40:43.182Z,85.80
2018-11-13T17:43:15.698Z,85.10
2018-11-13T17:45:47.216Z,85.40
2018-11-13T17:48:21.181Z,85.20
2018-11-13T17:50:53.028Z,85.20
2018-11-13T17:53:25.001Z,85.60
2018-11-13T17:55:56.289Z,86.10
2018-11-13T17:58:27.617Z,86.20
2018-11-13T18:00:58.918Z,86.40
2018-11-13T18:03:30.182Z,86.50
2018-11-13T18:06:01.457Z,86.50
2018-11-13T18:08:32.895Z,86.60
2018-11-13T18:11:04.437Z,86.40
2018-11-13T18:13:36.784Z,86.60
2018-11-13T18:16:08.304Z,87.40
2018-11-13T18:18:40.573Z,87.00
2018-11-13T18:21:12.943Z,87.50
2018-11-13T18:23:44.769Z,87.40
2018-11-13T18:26:16.292Z,87.40
2018-11-13T18:28:48.213Z,87.10
2018-11-13T18:31:19.689Z,87.50
2018-11-13T18:33:51.364Z,87.80
2018-11-13T18:36:22.730Z,88.30
2018-11-13T18:38:54.005Z,88.50
2018-11-13T18:41:25.165Z,88.40
2018-11-13T18:43:56.388Z,87.70
2018-11-13T18:46:27.712Z,88.30
2018-11-13T18:48:59.163Z,88.30
2018-11-13T18:51:31.159Z,88.90
2018-11-13T18:54:02.262Z,88.70
2018-11-13T18:56:33.565Z,89.30
2018-11-13T18:59:04.785Z,89.10
2018-11-13T19:01:37.246Z,88.50
2018-11-13T19:04:08.703Z,88.90
2018-11-13T19:06:39.885Z,89.70
2018-11-13T19:09:12.635Z,89.90
2018-11-13T19:11:43.827Z,89.80
2018-11-13T19:14:14.880Z,90.40
2018-11-13T19:16:46.163Z,90.00
2018-11-13T19:19:17.470Z,90.30
2018-11-13T19:21:48.779Z,90.10
2018-11-13T19:24:20.214Z,89.30
2018-11-13T19:26:51.300Z,89.30
2018-11-13T19:29:22.390Z,88.50
2018-11-13T19:31:53.704Z,89.30
2018-11-13T19:34:24.813Z,89.80
2018-11-13T19:36:56.178Z,90.20
2018-11-13T19:39:27.722Z,90.30
2018-11-13T19:41:59.088Z,90.40
2018-11-13T19:44:30.202Z,90.40
2018-11-13T19:47:01.227Z,90.30
2018-11-13T19:49:32.497Z,90.40
2018-11-13T19:52:03.841Z,90.50
2018-11-13T19:54:35.136Z,90.50
2018-11-13T19:57:06.392Z,90.40
2018-11-13T19:59:37.811Z,90.20
2018-11-13T20:02:09.029Z,89.70
2018-11-13T20:04:40.354Z,90.00
2018-11-13T20:07:11.723Z,90.20
2018-11-13T20:09:43.218Z,90.30
2018-11-13T20:12:14.438Z,90.70
2018-11-13T20:14:45.781Z,90.80
2018-11-13T20:17:16.864Z,90.80
2018-11-13T20:19:47.852Z,90.90
2018-11-13T20:22:19.122Z,91.20
2018-11-13T20:24:50.357Z,91.30
2018-11-13T20:27:22.619Z,91.70
2018-11-13T20:29:53.628Z,91.70
2018-11-13T20:32:24.821Z,91.20
2018-11-13T20:34:56.035Z,91.10
2018-11-13T20:37:27.468Z,90.90
2018-11-13T20:39:59.725Z,91.10
2018-11-13T20:42:31.946Z,90.90
2018-11-13T20:45:03.359Z,90.30
2018-11-13T20:47:34.412Z,90.30
2018-11-13T20:50:06.654Z,90.40
2018-11-13T20:52:37.892Z,90.70
2018-11-13T20:55:10.662Z,90.60
2018-11-13T20:57:41.984Z,90.50
2018-11-13T21:00:16.308Z,90.60
2018-11-13T21:02:47.826Z,90.90
2018-11-13T21:05:18.978Z,90.90
2018-11-13T21:07:50.190Z,91.30
2018-11-13T21:10:22.106Z,91.40
2018-11-13T21:12:53.318Z,91.60
2018-11-13T21:15:24.514Z,91.50
2018-11-13T21:17:55.579Z,91.80
2018-11-13T21:20:27.996Z,91.40
2018-11-13T21:22:59.045Z,91.40
2018-11-13T21:25:30.615Z,91.70
2018-11-13T21:28:03.308Z,91.80
2018-11-13T21:30:34.448Z,91.40
2018-11-13T21:33:05.796Z,91.30
2018-11-13T21:35:41.673Z,90.90
2018-11-13T21:38:12.956Z,91.00
2018-11-13T21:40:43.936Z,90.80
2018-11-13T21:43:15.181Z,90.60
2018-11-13T21:45:46.339Z,90.70
2018-11-13T21:48:17.352Z,90.80
2018-11-13T21:50:48.581Z,91.30
2018-11-13T21:53:20.147Z,91.50
2018-11-13T21:55:51.233Z,91.80
2018-11-13T21:58:23.124Z,91.90
2018-11-13T22:00:55.409Z,91.90
2018-11-13T22:03:27.207Z,91.90
2018-11-13T22:05:58.295Z,92.00
2018-11-13T22:08:29.742Z,92.00
2018-11-13T22:11:01.097Z,92.40
2018-11-13T22:13:32.361Z,91.90
2018-11-13T22:16:03.537Z,91.80
2018-11-13T22:18:34.592Z,92.10
2018-11-13T22:21:06.254Z,91.80
2018-11-13T22:23:37.357Z,91.60
2018-11-13T22:26:08.742Z,91.50
2018-11-13T22:28:39.766Z,91.20
2018-11-13T22:31:10.786Z,91.10
2018-11-13T22:33:42.071Z,91.20
2018-11-13T22:36:12.988Z,91.70
2018-11-13T22:38:44.033Z,91.90
2018-11-13T22:41:15.221Z,91.60
2018-11-13T22:43:46.562Z,91.90
2018-11-13T22:46:17.892Z,92.70
2018-11-13T22:48:48.981Z,92.60
2018-11-13T22:51:19.858Z,92.60
2018-11-13T22:53:50.957Z,92.60
2018-11-13T22:56:22.033Z,92.40
2018-11-13T22:58:53.043Z,92.00
2018-11-13T23:01:24.250Z,91.80
2018-11-13T23:03:55.293Z,91.70
2018-11-13T23:06:26.788Z,91.70
2018-11-13T23:08:58.093Z,91.50
2018-11-13T23:11:29.193Z,91.10
2018-11-13T23:14:00.347Z,91.00
2018-11-13T23:16:31.482Z,91.40
2018-11-13T23:19:03.031Z,91.60
2018-11-13T23:21:34.146Z,91.80
2018-11-13T23:24:05.275Z,91.80
2018-11-13T23:26:36.539Z,92.10
2018-11-13T23:29:07.947Z,92.30
2018-11-13T23:31:39.187Z,92.40
2018-11-13T23:34:10.154Z,92.50
2018-11-13T23:36:41.315Z,92.30
2018-11-13T23:39:12.267Z,92.10
2018-11-13T23:41:43.283Z,91.90
2018-11-13T23:44:15.127Z,91.90
2018-11-13T23:46:46.148Z,92.00
2018-11-13T23:49:17.191Z,92.20
2018-11-13T23:51:48.734Z,92.20
2018-11-13T23:54:19.945Z,92.20
2018-11-13T23:56:51.000Z,92.30
2018-11-13T23:59:22.173Z,92.10
